SWA1652 KTPA-KBHM
Flight info
| Callsign | SWA1652 |
|---|---|
| Flight time | 1h 8m |
| Altitude | 36000 |
| Route | ENDED2 LACEN PATOY Q116 DEEDA WANDS |
| Aircraft | B738/M-SDE2E3GIJ4RWZ/LB1D1 |
Departure
| Time | 2026-05-04 05:20 |
|---|---|
| Airport | Tampa International Airport (KTPA) |
Arrival
| Time | 2026-05-04 06:29 |
|---|---|
| Airport | Birmingham-Shuttlesworth International Airport (KBHM) |
| Time | Latitude | Longitude | Altitude | Speed | Heading |
|---|---|---|---|---|---|
| 2026-05-04 04:47 | 27.98220 | -82.53124 | 42 ft | 0 kts | 271° |
| 2026-05-04 05:09 | 27.98219 | -82.53080 | 42 ft | 4 kts | 271° |
| 2026-05-04 05:09 | 27.98219 | -82.53057 | 42 ft | 4 kts | 241° |
| 2026-05-04 05:10 | 27.98236 | -82.53045 | 39 ft | 3 kts | 182° |
| 2026-05-04 05:10 | 27.98255 | -82.53045 | 40 ft | 0 kts | 182° |
| 2026-05-04 05:14 | 27.98251 | -82.53045 | 40 ft | 2 kts | 182° |
| 2026-05-04 05:15 | 27.98227 | -82.53046 | 42 ft | 6 kts | 182° |
| 2026-05-04 05:15 | 27.98175 | -82.53048 | 42 ft | 9 kts | 182° |
| 2026-05-04 05:15 | 27.98105 | -82.53044 | 42 ft | 10 kts | 166° |
| 2026-05-04 05:15 | 27.98052 | -82.52996 | 41 ft | 10 kts | 133° |
| 2026-05-04 05:16 | 27.97991 | -82.52971 | 41 ft | 10 kts | 182° |
| 2026-05-04 05:16 | 27.97920 | -82.52974 | 41 ft | 11 kts | 182° |
| 2026-05-04 05:16 | 27.97836 | -82.52977 | 41 ft | 13 kts | 182° |
| 2026-05-04 05:16 | 27.97732 | -82.52980 | 41 ft | 16 kts | 181° |
| 2026-05-04 05:17 | 27.97608 | -82.52984 | 41 ft | 19 kts | 181° |
| 2026-05-04 05:17 | 27.97471 | -82.52989 | 41 ft | 20 kts | 181° |
| 2026-05-04 05:17 | 27.97336 | -82.52993 | 40 ft | 19 kts | 182° |
| 2026-05-04 05:17 | 27.97197 | -82.52998 | 40 ft | 21 kts | 181° |
| 2026-05-04 05:18 | 27.97039 | -82.53003 | 35 ft | 24 kts | 182° |
| 2026-05-04 05:18 | 27.96877 | -82.53010 | 40 ft | 23 kts | 181° |
| 2026-05-04 05:18 | 27.96721 | -82.53014 | 40 ft | 22 kts | 182° |
| 2026-05-04 05:18 | 27.96570 | -82.53020 | 40 ft | 21 kts | 182° |
| 2026-05-04 05:19 | 27.96473 | -82.53021 | 40 ft | 10 kts | 163° |
| 2026-05-04 05:19 | 27.96444 | -82.52969 | 38 ft | 9 kts | 96° |
| 2026-05-04 05:19 | 27.96449 | -82.52903 | 36 ft | 8 kts | 47° |
| 2026-05-04 05:19 | 27.96511 | -82.52897 | 36 ft | 16 kts | 1° |
| 2026-05-04 05:20 | 27.96870 | -82.52886 | 37 ft | 88 kts | 1° |
| 2026-05-04 05:20 | 27.97702 | -82.52857 | 38 ft | 149 kts | 1° |
| 2026-05-04 05:20 | 27.98837 | -82.52815 | 463 ft | 166 kts | 3° |
| 2026-05-04 05:20 | 27.99964 | -82.52811 | 1415 ft | 158 kts | 360° |
| 2026-05-04 05:21 | 28.01079 | -82.52850 | 2072 ft | 169 kts | 359° |
| 2026-05-04 05:21 | 28.02365 | -82.52911 | 2355 ft | 201 kts | 358° |
| 2026-05-04 05:21 | 28.03848 | -82.53009 | 2573 ft | 225 kts | 356° |
| 2026-05-04 05:21 | 28.05474 | -82.53155 | 2824 ft | 246 kts | 354° |
| 2026-05-04 05:22 | 28.07238 | -82.53343 | 3265 ft | 261 kts | 353° |
| 2026-05-04 05:22 | 28.09067 | -82.53578 | 4011 ft | 267 kts | 350° |
| 2026-05-04 05:22 | 28.10913 | -82.53872 | 4868 ft | 269 kts | 349° |
| 2026-05-04 05:22 | 28.12778 | -82.54191 | 5646 ft | 273 kts | 343° |
| 2026-05-04 05:23 | 28.14451 | -82.55137 | 6526 ft | 269 kts | 319° |
| 2026-05-04 05:23 | 28.15919 | -82.56455 | 7425 ft | 269 kts | 317° |
| 2026-05-04 05:23 | 28.17382 | -82.57789 | 8291 ft | 272 kts | 317° |
| 2026-05-04 05:23 | 28.18865 | -82.59129 | 9164 ft | 273 kts | 317° |
| 2026-05-04 05:24 | 28.20363 | -82.60466 | 10062 ft | 275 kts | 316° |
| 2026-05-04 05:24 | 28.21901 | -82.61828 | 10596 ft | 290 kts | 317° |
| 2026-05-04 05:24 | 28.23564 | -82.63297 | 10770 ft | 315 kts | 317° |
| 2026-05-04 05:24 | 28.25364 | -82.64876 | 10958 ft | 339 kts | 317° |
| 2026-05-04 05:25 | 28.27279 | -82.66545 | 11295 ft | 353 kts | 318° |
| 2026-05-04 05:25 | 28.29245 | -82.68248 | 11943 ft | 357 kts | 318° |
| 2026-05-04 05:25 | 28.31225 | -82.69963 | 12692 ft | 359 kts | 318° |
| 2026-05-04 05:25 | 28.33212 | -82.71685 | 13452 ft | 360 kts | 317° |
| 2026-05-04 05:26 | 28.35204 | -82.73416 | 14136 ft | 362 kts | 317° |
| 2026-05-04 05:26 | 28.37209 | -82.75162 | 14738 ft | 365 kts | 317° |
| 2026-05-04 05:26 | 28.39300 | -82.76843 | 15300 ft | 373 kts | 323° |
| 2026-05-04 05:26 | 28.41672 | -82.78135 | 15889 ft | 383 kts | 332° |
| 2026-05-04 05:27 | 28.44254 | -82.79040 | 16435 ft | 396 kts | 341° |
| 2026-05-04 05:28 | 28.64172 | -82.82297 | 19893 ft | 424 kts | 343° |
| 2026-05-04 05:29 | 28.67092 | -82.82836 | 20348 ft | 427 kts | 343° |
| 2026-05-04 05:29 | 28.70037 | -82.83378 | 20795 ft | 430 kts | 343° |
| 2026-05-04 05:29 | 28.72999 | -82.83919 | 21258 ft | 433 kts | 343° |
| 2026-05-04 05:29 | 28.75982 | -82.84462 | 21675 ft | 436 kts | 343° |
| 2026-05-04 05:31 | 28.97381 | -82.88342 | 24373 ft | 454 kts | 343° |
| 2026-05-04 05:31 | 29.00507 | -82.88909 | 24727 ft | 456 kts | 343° |
| 2026-05-04 05:32 | 29.03623 | -82.89544 | 25068 ft | 452 kts | 338° |
| 2026-05-04 05:32 | 29.06575 | -82.90654 | 25410 ft | 443 kts | 329° |
| 2026-05-04 05:32 | 29.09311 | -82.92213 | 25747 ft | 435 kts | 320° |
| 2026-05-04 05:33 | 29.14193 | -82.96208 | 26418 ft | 432 kts | 316° |
| 2026-05-04 05:33 | 29.16624 | -82.98248 | 26729 ft | 434 kts | 316° |
| 2026-05-04 05:33 | 29.19072 | -83.00281 | 27039 ft | 436 kts | 316° |
| 2026-05-04 05:33 | 29.21536 | -83.02308 | 27335 ft | 437 kts | 316° |
| 2026-05-04 05:34 | 29.24013 | -83.04338 | 27639 ft | 439 kts | 317° |
| 2026-05-04 05:34 | 29.26498 | -83.06373 | 27938 ft | 440 kts | 317° |
| 2026-05-04 05:34 | 29.28992 | -83.08416 | 28244 ft | 441 kts | 317° |
| 2026-05-04 05:34 | 29.31482 | -83.10457 | 28643 ft | 439 kts | 317° |
| 2026-05-04 05:35 | 29.33958 | -83.12486 | 29141 ft | 436 kts | 317° |
| 2026-05-04 05:35 | 29.36414 | -83.14500 | 29637 ft | 433 kts | 317° |
| 2026-05-04 05:35 | 29.38856 | -83.16505 | 30082 ft | 431 kts | 317° |
| 2026-05-04 05:35 | 29.41290 | -83.18507 | 30434 ft | 431 kts | 316° |
| 2026-05-04 05:36 | 29.43721 | -83.20508 | 30790 ft | 429 kts | 316° |
| 2026-05-04 05:36 | 29.46142 | -83.22502 | 31168 ft | 427 kts | 316° |
| 2026-05-04 05:36 | 29.48555 | -83.24490 | 31553 ft | 426 kts | 316° |
| 2026-05-04 05:36 | 29.50955 | -83.26468 | 31885 ft | 425 kts | 316° |
| 2026-05-04 05:37 | 29.53320 | -83.28419 | 32227 ft | 424 kts | 316° |
| 2026-05-04 05:37 | 29.55707 | -83.30389 | 32605 ft | 422 kts | 316° |
| 2026-05-04 05:37 | 29.58084 | -83.32351 | 32961 ft | 420 kts | 315° |
| 2026-05-04 05:38 | 29.62819 | -83.36265 | 33654 ft | 418 kts | 315° |
| 2026-05-04 05:38 | 29.65171 | -83.38211 | 34011 ft | 416 kts | 315° |
| 2026-05-04 05:38 | 29.67514 | -83.40151 | 34320 ft | 415 kts | 315° |
| 2026-05-04 05:38 | 29.69854 | -83.42089 | 34599 ft | 413 kts | 315° |
| 2026-05-04 05:39 | 29.72185 | -83.44022 | 34871 ft | 413 kts | 315° |
| 2026-05-04 05:39 | 29.76836 | -83.47882 | 35365 ft | 412 kts | 315° |
| 2026-05-04 05:39 | 29.79157 | -83.49809 | 35616 ft | 411 kts | 314° |
| 2026-05-04 05:40 | 29.83791 | -83.53659 | 36102 ft | 410 kts | 314° |
| 2026-05-04 05:40 | 29.88449 | -83.57533 | 36152 ft | 414 kts | 315° |
| 2026-05-04 05:41 | 29.93100 | -83.61380 | 36152 ft | 410 kts | 315° |
| 2026-05-04 05:41 | 29.97712 | -83.65203 | 36154 ft | 407 kts | 315° |
| 2026-05-04 05:42 | 30.02292 | -83.69009 | 36162 ft | 405 kts | 315° |
| 2026-05-04 05:42 | 30.06854 | -83.72806 | 36160 ft | 404 kts | 315° |
| 2026-05-04 05:43 | 30.11409 | -83.76602 | 36159 ft | 404 kts | 315° |
| 2026-05-04 05:45 | 30.28016 | -83.90517 | 36153 ft | 413 kts | 316° |
| 2026-05-04 05:47 | 30.46563 | -84.06153 | 36147 ft | 411 kts | 316° |
| 2026-05-04 05:47 | 30.51171 | -84.10050 | 36145 ft | 409 kts | 316° |
| 2026-05-04 05:48 | 30.55756 | -84.13933 | 36143 ft | 407 kts | 316° |
| 2026-05-04 05:48 | 30.60324 | -84.17806 | 36148 ft | 406 kts | 316° |
| 2026-05-04 05:49 | 30.64873 | -84.21668 | 36145 ft | 405 kts | 316° |
| 2026-05-04 05:49 | 30.69407 | -84.25523 | 36150 ft | 403 kts | 316° |
| 2026-05-04 05:51 | 30.87497 | -84.40949 | 36179 ft | 405 kts | 319° |
| 2026-05-04 05:52 | 30.92051 | -84.44842 | 36169 ft | 407 kts | 319° |
| 2026-05-04 05:52 | 30.96615 | -84.48748 | 36166 ft | 408 kts | 319° |
| 2026-05-04 05:54 | 31.14927 | -84.64472 | 36165 ft | 409 kts | 320° |
| 2026-05-04 05:55 | 31.19505 | -84.68414 | 36162 ft | 409 kts | 320° |
| 2026-05-04 05:55 | 31.23302 | -84.71689 | 36168 ft | 408 kts | 320° |
| 2026-05-04 05:56 | 31.28608 | -84.76270 | 36168 ft | 407 kts | 320° |
| 2026-05-04 05:56 | 31.33161 | -84.80206 | 36176 ft | 407 kts | 320° |
| 2026-05-04 05:57 | 31.37706 | -84.84141 | 36174 ft | 406 kts | 320° |
| 2026-05-04 05:57 | 31.41507 | -84.87434 | 36183 ft | 405 kts | 320° |
| 2026-05-04 05:58 | 31.46035 | -84.91363 | 36177 ft | 405 kts | 320° |
| 2026-05-04 05:58 | 31.50558 | -84.95293 | 36178 ft | 404 kts | 320° |
| 2026-05-04 05:59 | 31.55074 | -84.99220 | 36175 ft | 404 kts | 320° |
| 2026-05-04 05:59 | 31.59580 | -85.03106 | 36088 ft | 407 kts | 321° |
| 2026-05-04 06:00 | 31.61882 | -85.05048 | 35963 ft | 408 kts | 321° |
| 2026-05-04 06:00 | 31.64190 | -85.06986 | 35812 ft | 408 kts | 321° |
| 2026-05-04 06:00 | 31.66495 | -85.08921 | 35662 ft | 406 kts | 321° |
| 2026-05-04 06:00 | 31.68789 | -85.10850 | 35517 ft | 405 kts | 321° |
| 2026-05-04 06:01 | 31.71076 | -85.12777 | 35377 ft | 405 kts | 322° |
| 2026-05-04 06:01 | 31.73361 | -85.14706 | 35232 ft | 404 kts | 322° |
| 2026-05-04 06:03 | 31.89419 | -85.28319 | 34114 ft | 409 kts | 322° |
| 2026-05-04 06:03 | 31.91727 | -85.30282 | 33926 ft | 410 kts | 322° |
| 2026-05-04 06:05 | 32.08024 | -85.44169 | 32333 ft | 417 kts | 322° |
| 2026-05-04 06:05 | 32.12723 | -85.48184 | 31831 ft | 418 kts | 322° |
| 2026-05-04 06:05 | 32.15075 | -85.50196 | 31576 ft | 418 kts | 322° |
| 2026-05-04 06:06 | 32.17434 | -85.52216 | 31336 ft | 419 kts | 322° |
| 2026-05-04 06:06 | 32.19791 | -85.54235 | 31092 ft | 419 kts | 322° |
| 2026-05-04 06:06 | 32.22155 | -85.56262 | 30853 ft | 420 kts | 322° |
| 2026-05-04 06:06 | 32.24526 | -85.58295 | 30613 ft | 421 kts | 322° |
| 2026-05-04 06:07 | 32.26901 | -85.60334 | 30380 ft | 423 kts | 322° |
| 2026-05-04 06:07 | 32.29283 | -85.62379 | 30131 ft | 424 kts | 322° |
| 2026-05-04 06:07 | 32.31673 | -85.64434 | 29857 ft | 425 kts | 322° |
| 2026-05-04 06:07 | 32.34069 | -85.66494 | 29579 ft | 427 kts | 322° |
| 2026-05-04 06:08 | 32.36470 | -85.68561 | 29310 ft | 428 kts | 322° |
| 2026-05-04 06:08 | 32.38883 | -85.70639 | 29040 ft | 429 kts | 322° |
| 2026-05-04 06:08 | 32.41302 | -85.72723 | 28774 ft | 430 kts | 322° |
| 2026-05-04 06:08 | 32.43723 | -85.74811 | 28511 ft | 432 kts | 322° |
| 2026-05-04 06:09 | 32.46152 | -85.76907 | 28246 ft | 433 kts | 322° |
| 2026-05-04 06:09 | 32.48571 | -85.78995 | 27774 ft | 427 kts | 322° |
| 2026-05-04 06:11 | 32.65262 | -85.93445 | 24170 ft | 419 kts | 322° |
| 2026-05-04 06:11 | 32.67611 | -85.95485 | 23635 ft | 418 kts | 322° |
| 2026-05-04 06:13 | 32.83664 | -86.09459 | 19227 ft | 399 kts | 323° |
| 2026-05-04 06:14 | 32.96820 | -86.20959 | 15471 ft | 382 kts | 323° |
| 2026-05-04 06:14 | 32.98957 | -86.22832 | 14867 ft | 380 kts | 324° |
| 2026-05-04 06:15 | 33.01057 | -86.24673 | 14283 ft | 372 kts | 324° |
| 2026-05-04 06:15 | 33.03121 | -86.26483 | 13662 ft | 365 kts | 324° |
| 2026-05-04 06:15 | 33.05147 | -86.28262 | 13010 ft | 358 kts | 324° |
| 2026-05-04 06:15 | 33.07138 | -86.30011 | 12375 ft | 353 kts | 324° |
| 2026-05-04 06:16 | 33.09099 | -86.31734 | 11747 ft | 348 kts | 324° |
| 2026-05-04 06:16 | 33.11032 | -86.33433 | 11255 ft | 340 kts | 324° |
| 2026-05-04 06:16 | 33.12884 | -86.35063 | 11093 ft | 322 kts | 324° |
| 2026-05-04 06:16 | 33.14635 | -86.36605 | 11002 ft | 304 kts | 324° |
| 2026-05-04 06:17 | 33.16285 | -86.38057 | 10985 ft | 285 kts | 324° |
| 2026-05-04 06:17 | 33.17829 | -86.39419 | 10979 ft | 267 kts | 324° |
| 2026-05-04 06:17 | 33.19395 | -86.40570 | 10898 ft | 267 kts | 339° |
| 2026-05-04 06:17 | 33.21169 | -86.41242 | 10583 ft | 269 kts | 345° |
| 2026-05-04 06:18 | 33.22977 | -86.41823 | 10226 ft | 268 kts | 346° |
| 2026-05-04 06:18 | 33.24771 | -86.42387 | 9857 ft | 265 kts | 346° |
| 2026-05-04 06:18 | 33.26552 | -86.42941 | 9459 ft | 263 kts | 346° |
| 2026-05-04 06:20 | 33.38715 | -86.46580 | 6770 ft | 255 kts | 346° |
| 2026-05-04 06:20 | 33.40438 | -86.47074 | 6386 ft | 255 kts | 346° |
| 2026-05-04 06:21 | 33.47323 | -86.48968 | 4799 ft | 253 kts | 346° |
| 2026-05-04 06:21 | 33.49018 | -86.49407 | 4395 ft | 253 kts | 346° |
| 2026-05-04 06:22 | 33.50739 | -86.49846 | 3990 ft | 253 kts | 346° |
| 2026-05-04 06:22 | 33.52453 | -86.50279 | 3671 ft | 249 kts | 346° |
| 2026-05-04 06:25 | 33.64669 | -86.60607 | 3023 ft | 189 kts | 239° |
| 2026-05-04 06:25 | 33.63990 | -86.62009 | 3039 ft | 199 kts | 244° |
| 2026-05-04 06:26 | 33.63333 | -86.63503 | 2795 ft | 203 kts | 239° |
| 2026-05-04 06:26 | 33.62560 | -86.64854 | 2567 ft | 190 kts | 235° |
| 2026-05-04 06:26 | 33.61821 | -86.66114 | 2349 ft | 179 kts | 236° |
| 2026-05-04 06:26 | 33.61146 | -86.67288 | 2096 ft | 163 kts | 236° |
| 2026-05-04 06:27 | 33.58758 | -86.71448 | 1258 ft | 151 kts | 235° |
| 2026-05-04 06:28 | 33.58162 | -86.72490 | 1022 ft | 152 kts | 235° |
| 2026-05-04 06:28 | 33.57560 | -86.73541 | 774 ft | 153 kts | 236° |
| 2026-05-04 06:28 | 33.56961 | -86.74584 | 614 ft | 147 kts | 235° |
| 2026-05-04 06:28 | 33.56494 | -86.75395 | 609 ft | 87 kts | 235° |
| 2026-05-04 06:29 | 33.56278 | -86.75769 | 611 ft | 20 kts | 232° |
| 2026-05-04 06:29 | 33.56205 | -86.75836 | 621 ft | 13 kts | 204° |
| 2026-05-04 06:29 | 33.56135 | -86.75874 | 614 ft | 7 kts | 205° |
| 2026-05-04 06:29 | 33.56118 | -86.75843 | 616 ft | 7 kts | 59° |
| 2026-05-04 06:30 | 33.56144 | -86.75797 | 616 ft | 7 kts | 55° |
| 2026-05-04 06:30 | 33.56170 | -86.75753 | 615 ft | 6 kts | 54° |
| 2026-05-04 06:30 | 33.56187 | -86.75706 | 608 ft | 6 kts | 92° |
| 2026-05-04 06:30 | 33.56158 | -86.75659 | 610 ft | 8 kts | 120° |
| 2026-05-04 06:31 | 33.56167 | -86.75598 | 616 ft | 8 kts | 58° |
| 2026-05-04 06:31 | 33.56196 | -86.75544 | 612 ft | 8 kts | 56° |
| 2026-05-04 06:31 | 33.56225 | -86.75493 | 609 ft | 7 kts | 56° |
| 2026-05-04 06:31 | 33.56237 | -86.75439 | 607 ft | 7 kts | 116° |
| 2026-05-04 06:32 | 33.56195 | -86.75418 | 611 ft | 6 kts | 172° |
| 2026-05-04 06:33 | 33.56171 | -86.75412 | 617 ft | 0 kts | 166° |